createdAt,value
2018-03-20T00:01:35.519Z,35.7
2018-03-20T00:16:35.528Z,47.4
2018-03-20T00:46:35.774Z,37.5
2018-03-20T01:06:35.574Z,44.3
2018-03-20T02:26:35.658Z,47.3
2018-03-20T02:41:35.503Z,43.3
2018-03-20T03:16:35.638Z,48.4
2018-03-20T03:31:35.762Z,41.2
2018-03-20T04:06:35.984Z,38.9
2018-03-20T04:21:35.792Z,37.5
2018-03-20T04:36:45.998Z,44.7
2018-03-20T04:56:40.870Z,53.3
2018-03-20T05:11:40.894Z,52.3
2018-03-20T05:26:40.899Z,47.4
2018-03-20T05:41:41.154Z,57.3
2018-03-20T06:01:41.251Z,46.2
2018-03-20T06:16:41.373Z,47.5
2018-03-20T06:46:41.586Z,40.4
2018-03-20T07:06:41.517Z,43
2018-03-20T07:21:41.730Z,52.8
2018-03-20T07:56:41.769Z,42.7
2018-03-20T08:26:41.762Z,40.6
2018-03-20T08:41:41.976Z,36.9
2018-03-20T09:16:42.013Z,33.1
2018-03-20T09:31:49.571Z,35.9
2018-03-20T09:51:44.703Z,34.8
2018-03-20T10:06:45.813Z,33.9
2018-03-20T10:21:44.476Z,36.3
2018-03-20T10:56:44.512Z,44.2
2018-03-20T11:11:44.625Z,39
2018-03-20T11:46:44.523Z,34
2018-03-20T12:01:44.557Z,28.4
2018-03-20T12:16:44.760Z,34.6
2018-03-20T12:31:44.811Z,39
2018-03-20T12:51:44.697Z,36.7
2018-03-20T13:06:44.871Z,39.2
2018-03-20T13:41:45.166Z,36.8
2018-03-20T14:11:45.150Z,44.6
2018-03-20T14:26:45.724Z,50.6
2018-03-20T14:46:45.750Z,44.1
2018-03-20T15:01:45.948Z,39.3
2018-03-20T15:16:46.215Z,29.6
2018-03-20T15:36:45.850Z,25.6
2018-03-20T15:51:45.979Z,24.4
2018-03-20T16:06:46.196Z,21.7
2018-03-20T16:21:45.873Z,24.5
2018-03-20T16:41:45.908Z,30.7
2018-03-20T16:56:45.900Z,24.4
2018-03-20T17:11:46.138Z,26.1
2018-03-20T17:31:46.048Z,21.5
2018-03-20T18:01:45.911Z,27.3
2018-03-20T19:26:50.962Z,20.2
2018-03-20T19:41:51.123Z,25.7
2018-03-20T19:56:51.041Z,19.9
2018-03-20T20:31:51.266Z,19.1
2018-03-20T20:46:51.320Z,22.5
2018-03-20T21:21:51.530Z,18.7
2018-03-20T21:36:51.537Z,23.9
2018-03-20T21:51:51.526Z,20
2018-03-20T22:26:59.137Z,25.2
2018-03-20T22:56:51.446Z,22.2
2018-03-20T23:11:51.405Z,18.7
